createdAt,value
2023-04-09T00:03:49.671Z,6.02
2023-04-09T00:08:51.947Z,5.95
2023-04-09T00:13:54.234Z,5.91
2023-04-09T00:18:56.679Z,5.98
2023-04-09T00:23:58.757Z,6.00
2023-04-09T00:29:01.070Z,6.05
2023-04-09T00:34:05.092Z,5.97
2023-04-09T00:39:10.767Z,5.92
2023-04-09T00:44:13.341Z,5.93
2023-04-09T00:54:53.216Z,5.97
2023-04-09T00:59:55.313Z,5.92
2023-04-09T01:04:57.471Z,5.97
2023-04-09T01:10:05.214Z,6.06
2023-04-09T01:15:18.366Z,6.10
2023-04-09T01:20:37.426Z,6.16
2023-04-09T01:25:39.411Z,6.19
2023-04-09T01:30:47.358Z,6.14
2023-04-09T01:35:50.987Z,6.14
2023-04-09T01:40:55.652Z,6.09
2023-04-09T01:46:00.654Z,6.05
2023-04-09T01:51:02.533Z,5.99
2023-04-09T01:56:04.545Z,6.00
2023-04-09T02:01:09.949Z,6.02
2023-04-09T02:06:21.205Z,6.00
2023-04-09T02:11:24.775Z,5.98
2023-04-09T02:16:27.800Z,5.97
2023-04-09T02:21:29.810Z,5.98
2023-04-09T02:26:31.687Z,5.94
2023-04-09T02:31:33.730Z,5.91
2023-04-09T02:36:35.485Z,5.93
2023-04-09T02:41:37.284Z,6.03
2023-04-09T02:46:41.620Z,5.92
2023-04-09T02:51:43.332Z,5.90
2023-04-09T02:56:44.996Z,5.93
2023-04-09T03:01:46.654Z,5.94
2023-04-09T03:06:48.373Z,5.99
2023-04-09T03:11:49.995Z,5.94
2023-04-09T03:16:51.679Z,5.85
2023-04-09T03:21:53.562Z,5.88
2023-04-09T03:26:59.679Z,5.81
2023-04-09T03:32:01.406Z,5.81
2023-04-09T03:37:03.259Z,5.70
2023-04-09T03:42:06.643Z,5.71
2023-04-09T03:47:18.112Z,5.73
2023-04-09T03:52:19.736Z,5.73
2023-04-09T03:57:28.730Z,5.73
2023-04-09T04:02:34.017Z,5.69
2023-04-09T04:07:39.518Z,5.67
2023-04-09T04:12:46.054Z,5.63
2023-04-09T04:17:57.030Z,5.53
2023-04-09T04:23:19.230Z,5.63
2023-04-09T04:28:37.869Z,5.57
2023-04-09T04:33:41.934Z,5.52
2023-04-09T04:38:48.191Z,5.60
2023-04-09T04:44:16.171Z,5.60
2023-04-09T04:49:18.340Z,5.57
2023-04-09T04:54:22.626Z,5.48
2023-04-09T04:59:28.950Z,5.55
2023-04-09T05:04:34.750Z,5.64
2023-04-09T05:09:37.260Z,5.74
2023-04-09T05:14:42.230Z,5.71
2023-04-09T05:19:44.169Z,5.74
2023-04-09T05:24:47.858Z,5.90
2023-04-09T05:29:51.196Z,5.89
2023-04-09T05:34:53.244Z,5.81
2023-04-09T05:39:56.907Z,5.98
2023-04-09T05:44:59.539Z,5.97
2023-04-09T05:50:01.815Z,6.18
2023-04-09T05:55:03.817Z,6.16
2023-04-09T06:00:18.275Z,6.35
2023-04-09T06:05:22.116Z,6.47
2023-04-09T06:10:24.361Z,6.62
2023-04-09T06:15:26.317Z,6.66
2023-04-09T06:20:29.358Z,6.64
2023-04-09T06:25:31.031Z,6.62
2023-04-09T06:30:32.782Z,6.79
2023-04-09T06:35:34.586Z,6.89
2023-04-09T06:40:38.725Z,6.65
2023-04-09T06:45:41.119Z,6.73
2023-04-09T06:50:43.168Z,6.88
2023-04-09T06:55:44.804Z,6.75
2023-04-09T07:00:46.695Z,6.92
2023-04-09T07:05:48.703Z,7.03
2023-04-09T07:10:50.475Z,7.31
2023-04-09T07:15:52.154Z,7.31
2023-04-09T07:20:53.865Z,7.40
2023-04-09T07:25:55.757Z,7.46
2023-04-09T07:30:57.656Z,7.69
2023-04-09T07:35:59.336Z,7.86
2023-04-09T07:41:01.430Z,8.10
2023-04-09T07:46:03.252Z,7.97
2023-04-09T07:51:06.140Z,7.93
2023-04-09T07:56:08.106Z,8.33
2023-04-09T08:01:09.711Z,8.36
2023-04-09T08:06:11.505Z,8.35
2023-04-09T08:11:13.195Z,8.17
2023-04-09T08:16:15.544Z,8.36
2023-04-09T08:21:17.940Z,8.51
2023-04-09T08:26:19.695Z,8.56
2023-04-09T08:31:21.549Z,8.83
2023-04-09T08:36:23.465Z,8.87
2023-04-09T08:41:26.870Z,9.06
2023-04-09T08:46:28.739Z,9.01
2023-04-09T08:51:31.512Z,8.93
2023-04-09T08:56:33.454Z,9.20
2023-04-09T09:01:35.138Z,8.81
2023-04-09T09:06:41.499Z,8.82
2023-04-09T09:11:48.599Z,9.47
2023-04-09T09:16:56.773Z,9.13
2023-04-09T09:22:03.451Z,9.17
2023-04-09T09:27:05.362Z,9.37
2023-04-09T09:32:13.526Z,9.13
2023-04-09T09:37:28.561Z,9.69
2023-04-09T09:42:30.306Z,9.31
2023-04-09T09:47:32.550Z,9.60
2023-04-09T09:52:34.225Z,9.81
2023-04-09T09:57:42.232Z,9.79
2023-04-09T10:02:53.408Z,9.67
2023-04-09T10:07:57.860Z,9.84
2023-04-09T10:12:59.835Z,9.73
2023-04-09T10:18:01.986Z,10.17
2023-04-09T10:23:09.595Z,10.14
2023-04-09T10:28:18.664Z,10.13
2023-04-09T10:33:26.929Z,10.42
2023-04-09T10:38:38.346Z,10.30
2023-04-09T10:43:40.452Z,10.44
2023-04-09T10:48:43.838Z,10.01
2023-04-09T10:53:45.768Z,10.54
2023-04-09T10:58:47.409Z,10.57
2023-04-09T11:04:10.589Z,10.50
2023-04-09T11:09:12.491Z,10.82
2023-04-09T11:14:20.442Z,11.11
2023-04-09T11:19:22.125Z,11.30
2023-04-09T11:24:23.850Z,11.28
2023-04-09T11:29:25.468Z,11.73
2023-04-09T11:34:30.570Z,11.45
2023-04-09T11:39:32.143Z,11.83
2023-04-09T11:44:33.814Z,12.58
2023-04-09T11:49:36.036Z,11.82
2023-04-09T11:54:37.850Z,11.43
2023-04-09T11:59:39.743Z,11.42
2023-04-09T12:04:50.678Z,11.71
2023-04-09T12:09:52.386Z,11.43
2023-04-09T12:14:56.951Z,11.39
2023-04-09T12:19:58.524Z,11.23
2023-04-09T12:25:00.494Z,11.42
2023-04-09T12:30:02.115Z,11.29
2023-04-09T12:35:04.346Z,11.13
2023-04-09T12:40:07.126Z,11.24
2023-04-09T12:45:15.609Z,10.91
2023-04-09T12:50:17.354Z,10.82
2023-04-09T12:55:19.029Z,10.42
2023-04-09T13:00:20.723Z,10.44
2023-04-09T13:05:22.367Z,10.37
2023-04-09T13:10:25.462Z,10.51
2023-04-09T13:15:27.419Z,10.64
2023-04-09T13:20:29.628Z,10.78
2023-04-09T13:25:31.313Z,11.07
2023-04-09T13:30:32.989Z,11.31
2023-04-09T13:35:34.728Z,11.15
2023-04-09T13:40:36.584Z,10.70
2023-04-09T13:45:38.238Z,10.40
2023-04-09T13:50:39.853Z,10.59
2023-04-09T13:55:41.788Z,10.56
2023-04-09T14:00:43.533Z,10.37
2023-04-09T14:05:45.558Z,10.60
2023-04-09T14:10:47.301Z,10.83
2023-04-09T14:15:50.047Z,10.91
2023-04-09T14:20:51.914Z,11.05
2023-04-09T14:25:53.759Z,10.88
2023-04-09T14:30:55.661Z,10.88
2023-04-09T14:35:58.729Z,10.92
2023-04-09T14:41:00.852Z,11.02
2023-04-09T14:46:04.017Z,10.92
2023-04-09T14:51:06.799Z,10.99
2023-04-09T14:56:08.605Z,11.07
2023-04-09T15:01:10.372Z,10.99
2023-04-09T15:06:12.441Z,11.12
2023-04-09T15:11:18.072Z,11.99
2023-04-09T15:16:28.031Z,12.08
2023-04-09T15:21:31.726Z,11.56
2023-04-09T15:26:34.520Z,11.07
2023-04-09T15:31:36.427Z,10.62
2023-04-09T15:36:38.252Z,10.72
2023-04-09T15:41:39.860Z,10.91
2023-04-09T15:46:41.569Z,10.88
2023-04-09T15:51:43.249Z,10.81
2023-04-09T15:56:45.113Z,10.63
2023-04-09T16:01:46.821Z,10.84
2023-04-09T16:06:48.441Z,10.60
2023-04-09T16:11:51.096Z,10.41
2023-04-09T16:16:53.790Z,10.28
2023-04-09T16:21:55.739Z,10.39
2023-04-09T16:26:57.823Z,10.41
2023-04-09T16:32:00.049Z,10.37
2023-04-09T16:37:01.971Z,10.52
2023-04-09T16:42:03.641Z,10.49
2023-04-09T16:47:05.336Z,10.51
2023-04-09T16:52:07.161Z,10.48
2023-04-09T16:57:08.943Z,10.30
2023-04-09T17:02:10.702Z,9.98
2023-04-09T17:07:12.525Z,10.08
2023-04-09T17:12:14.236Z,10.09
2023-04-09T17:17:16.150Z,10.05
2023-04-09T17:22:17.951Z,9.93
2023-04-09T17:27:19.784Z,9.80
2023-04-09T17:32:21.503Z,9.74
2023-04-09T17:37:23.188Z,9.66
2023-04-09T17:42:24.824Z,9.60
2023-04-09T17:47:26.513Z,9.53
2023-04-09T17:52:29.214Z,9.47
2023-04-09T17:57:30.909Z,9.41
2023-04-09T18:02:33.008Z,9.37
2023-04-09T18:07:34.951Z,9.30
2023-04-09T18:12:36.569Z,9.20
2023-04-09T18:17:38.318Z,9.16
2023-04-09T18:22:39.956Z,9.13
2023-04-09T18:27:41.545Z,9.07
2023-04-09T18:32:43.986Z,9.03
2023-04-09T18:37:45.859Z,8.96
2023-04-09T18:42:54.144Z,8.92
2023-04-09T18:47:55.820Z,8.84
2023-04-09T18:52:57.454Z,8.79
2023-04-09T18:57:59.208Z,8.75
2023-04-09T19:03:01.253Z,8.71
2023-04-09T19:08:05.301Z,8.66
2023-04-09T19:13:06.995Z,8.62
2023-04-09T19:18:08.598Z,8.58
2023-04-09T19:23:10.312Z,8.56
2023-04-09T19:28:12.101Z,8.51
2023-04-09T19:33:13.763Z,8.48
2023-04-09T19:38:16.319Z,8.47
2023-04-09T19:43:18.033Z,8.42
2023-04-09T19:48:19.638Z,8.45
2023-04-09T19:53:22.859Z,8.40
2023-04-09T19:58:24.586Z,8.33
2023-04-09T20:03:26.350Z,8.29
2023-04-09T20:08:28.242Z,8.24
2023-04-09T20:13:29.999Z,8.23
2023-04-09T20:18:32.014Z,8.19
2023-04-09T20:23:33.661Z,8.14
2023-04-09T20:28:35.870Z,8.10
2023-04-09T20:33:37.472Z,8.09
2023-04-09T20:38:39.051Z,8.04
2023-04-09T20:43:40.762Z,8.04
2023-04-09T20:48:43.196Z,7.99
2023-04-09T20:53:45.436Z,7.94
2023-04-09T20:58:47.289Z,7.89
2023-04-09T21:03:49.150Z,7.85
2023-04-09T21:08:51.745Z,7.75
2023-04-09T21:13:55.256Z,7.69
2023-04-09T21:18:57.242Z,7.61
2023-04-09T21:23:58.936Z,7.48
2023-04-09T21:29:01.573Z,7.42
2023-04-09T21:34:03.256Z,7.33
2023-04-09T21:39:04.967Z,7.27
2023-04-09T21:44:08.631Z,7.24
2023-04-09T21:49:10.481Z,7.23
2023-04-09T21:54:12.095Z,7.23
2023-04-09T21:59:13.681Z,7.23
2023-04-09T22:04:15.638Z,7.20
2023-04-09T22:09:17.242Z,7.18
2023-04-09T22:14:19.832Z,7.09
2023-04-09T22:19:21.728Z,7.01
2023-04-09T22:24:30.358Z,6.94
2023-04-09T22:29:32.820Z,6.87
2023-04-09T22:34:34.662Z,6.80
2023-04-09T22:39:36.502Z,6.71
2023-04-09T22:44:39.673Z,6.66
2023-04-09T22:49:41.318Z,6.57
2023-04-09T22:54:43.270Z,6.46
2023-04-09T22:59:44.887Z,6.35
2023-04-09T23:04:46.702Z,6.23
2023-04-09T23:09:48.482Z,6.20
2023-04-09T23:14:50.167Z,6.06
2023-04-09T23:19:54.598Z,6.05
2023-04-09T23:24:56.692Z,6.01
2023-04-09T23:29:58.383Z,5.93
2023-04-09T23:35:01.239Z,5.86
2023-04-09T23:40:02.936Z,5.83
2023-04-09T23:45:05.800Z,5.71
2023-04-09T23:50:08.408Z,5.68
2023-04-09T23:55:10.755Z,5.57
